createdAt,value
2022-10-13T00:01:24.149Z,54.61
2022-10-13T00:03:54.332Z,54.54
2022-10-13T00:06:27.638Z,54.91
2022-10-13T00:08:57.877Z,54.61
2022-10-13T00:11:30.647Z,54.31
2022-10-13T00:14:04.673Z,54.40
2022-10-13T00:16:35.830Z,54.10
2022-10-13T00:19:05.755Z,53.40
2022-10-13T00:21:35.811Z,53.48
2022-10-13T00:24:05.758Z,52.96
2022-10-13T00:26:35.500Z,52.92
2022-10-13T00:29:08.208Z,52.85
2022-10-13T00:31:38.481Z,52.63
2022-10-13T00:34:09.116Z,53.49
2022-10-13T00:36:38.896Z,54.17
2022-10-13T00:39:09.288Z,53.84
2022-10-13T00:41:39.085Z,53.59
2022-10-13T00:44:38.750Z,53.20
2022-10-13T00:47:11.948Z,53.46
2022-10-13T00:49:41.675Z,53.51
2022-10-13T00:52:11.932Z,53.58
2022-10-13T00:54:41.952Z,53.43
2022-10-13T00:57:12.794Z,53.47
2022-10-13T00:59:43.834Z,53.58
2022-10-13T01:02:17.081Z,53.14
2022-10-13T01:04:49.799Z,53.29
2022-10-13T01:07:22.140Z,53.97
2022-10-13T01:09:51.934Z,53.83
2022-10-13T01:12:33.305Z,53.73
2022-10-13T01:15:10.059Z,54.07
2022-10-13T01:17:52.211Z,53.70
2022-10-13T01:20:55.619Z,53.45
2022-10-13T01:24:07.657Z,53.34
2022-10-13T01:27:01.454Z,54.53
2022-10-13T01:29:59.169Z,53.94
2022-10-13T01:32:39.171Z,53.79
2022-10-13T01:35:14.572Z,54.00
2022-10-13T01:37:51.566Z,53.96
2022-10-13T01:40:26.994Z,54.27
2022-10-13T01:43:03.944Z,54.72
2022-10-13T01:45:38.661Z,55.18
2022-10-13T01:48:13.644Z,55.01
2022-10-13T01:50:44.595Z,54.79
2022-10-13T01:53:17.951Z,54.64
2022-10-13T01:55:53.048Z,54.81
2022-10-13T01:58:23.617Z,54.93
2022-10-13T02:01:04.296Z,55.08
2022-10-13T02:03:46.698Z,55.06
2022-10-13T02:06:23.804Z,55.29
2022-10-13T02:09:01.262Z,55.61
2022-10-13T02:11:31.475Z,55.25
2022-10-13T02:14:08.159Z,55.97
2022-10-13T02:16:41.031Z,56.16
2022-10-13T02:19:17.543Z,56.77
2022-10-13T02:21:48.019Z,56.62
2022-10-13T02:24:17.925Z,56.84
2022-10-13T02:26:48.662Z,57.26
2022-10-13T02:29:19.774Z,58.28
2022-10-13T02:31:49.937Z,58.92
2022-10-13T02:34:22.250Z,58.71
2022-10-13T02:36:52.446Z,58.43
2022-10-13T02:39:22.233Z,58.75
2022-10-13T02:41:52.006Z,60.15
2022-10-13T02:44:22.192Z,59.99
2022-10-13T02:46:51.962Z,60.15
2022-10-13T02:49:24.312Z,59.95
2022-10-13T02:51:54.594Z,59.06
2022-10-13T02:54:24.330Z,58.25
2022-10-13T02:56:54.076Z,58.59
2022-10-13T02:59:24.188Z,57.92
2022-10-13T03:01:53.921Z,57.14
2022-10-13T03:04:26.274Z,57.48
2022-10-13T03:06:56.347Z,57.46
2022-10-13T03:09:26.151Z,57.49
2022-10-13T03:11:55.998Z,58.37
2022-10-13T03:14:26.099Z,59.48
2022-10-13T03:16:55.827Z,60.29
2022-10-13T03:19:28.505Z,60.71
2022-10-13T03:21:58.584Z,61.12
2022-10-13T03:24:28.315Z,61.22
2022-10-13T03:26:58.244Z,60.61
2022-10-13T03:29:28.902Z,60.95
2022-10-13T03:31:58.723Z,61.44
2022-10-13T03:34:31.791Z,60.89
2022-10-13T03:37:01.619Z,60.70
2022-10-13T03:39:31.876Z,60.55
2022-10-13T03:42:01.746Z,61.02
2022-10-13T03:44:31.573Z,60.84
2022-10-13T03:47:02.211Z,60.96
2022-10-13T03:49:34.662Z,61.13
2022-10-13T03:52:05.644Z,60.98
2022-10-13T03:54:35.652Z,61.20
2022-10-13T03:57:05.773Z,60.75
2022-10-13T03:59:37.113Z,60.25
2022-10-13T04:02:07.392Z,60.33
2022-10-13T04:04:40.560Z,59.87
2022-10-13T04:07:11.383Z,59.50
2022-10-13T04:09:41.126Z,59.47
2022-10-13T04:12:11.130Z,60.99
2022-10-13T04:14:40.906Z,61.28
2022-10-13T04:17:10.829Z,61.79
2022-10-13T04:19:43.553Z,62.00
2022-10-13T04:22:13.441Z,62.25
2022-10-13T04:24:43.769Z,63.77
2022-10-13T04:27:13.597Z,64.15
2022-10-13T04:29:43.333Z,64.65
2022-10-13T04:32:13.404Z,64.49
2022-10-13T04:34:45.923Z,63.40
2022-10-13T04:37:15.956Z,62.87
2022-10-13T04:39:45.678Z,62.86
2022-10-13T04:42:15.863Z,63.28
2022-10-13T04:44:45.863Z,63.35
2022-10-13T04:47:15.930Z,62.84
2022-10-13T04:49:48.494Z,62.68
2022-10-13T04:52:18.865Z,61.84
2022-10-13T04:54:48.903Z,61.64
2022-10-13T04:57:18.967Z,61.89
2022-10-13T04:59:48.644Z,62.80
2022-10-13T05:02:18.656Z,63.07
2022-10-13T05:04:51.612Z,62.91
2022-10-13T05:07:21.370Z,62.84
2022-10-13T05:09:53.419Z,62.28
2022-10-13T05:12:23.357Z,61.98
2022-10-13T05:14:53.449Z,61.85
2022-10-13T05:17:23.224Z,61.53
2022-10-13T05:19:55.822Z,61.47
2022-10-13T05:22:25.986Z,61.29
2022-10-13T05:24:56.072Z,62.03
2022-10-13T05:27:25.892Z,61.96
2022-10-13T05:29:55.862Z,62.54
2022-10-13T05:32:26.117Z,63.03
2022-10-13T05:34:58.896Z,62.96
2022-10-13T05:37:29.293Z,62.80
2022-10-13T05:39:59.240Z,63.10
2022-10-13T05:42:32.154Z,63.15
2022-10-13T05:45:01.922Z,63.98
2022-10-13T05:47:31.947Z,64.36
2022-10-13T05:50:04.327Z,65.12
2022-10-13T05:52:37.784Z,65.06
2022-10-13T05:55:11.799Z,65.36
2022-10-13T05:57:45.221Z,64.29
2022-10-13T06:00:18.053Z,63.61
2022-10-13T06:02:52.497Z,62.80
2022-10-13T06:05:28.676Z,63.14
2022-10-13T06:07:58.784Z,63.70
2022-10-13T06:10:29.211Z,63.31
2022-10-13T06:12:59.518Z,63.95
2022-10-13T06:15:29.374Z,64.23
2022-10-13T06:17:59.191Z,64.70
2022-10-13T06:20:35.072Z,64.68
2022-10-13T06:23:05.160Z,63.95
2022-10-13T06:25:36.309Z,63.54
2022-10-13T06:28:06.578Z,62.83
2022-10-13T06:30:36.926Z,63.40
2022-10-13T06:33:07.084Z,64.11
2022-10-13T06:35:40.109Z,64.70
2022-10-13T06:38:09.936Z,64.75
2022-10-13T06:40:40.171Z,65.41
2022-10-13T06:43:10.159Z,65.74
2022-10-13T06:52:06.341Z,64.60
2022-10-13T06:54:36.654Z,64.88
2022-10-13T06:57:08.775Z,64.75
2022-10-13T06:59:39.120Z,64.42
2022-10-13T07:02:09.305Z,64.47
2022-10-13T07:04:40.103Z,64.91
2022-10-13T07:07:13.356Z,65.19
2022-10-13T07:09:43.969Z,65.50
2022-10-13T07:12:18.902Z,65.23
2022-10-13T07:17:46.039Z,65.38
2022-10-13T07:20:16.838Z,66.31
2022-10-13T07:25:47.231Z,66.05
2022-10-13T07:28:16.979Z,65.21
2022-10-13T07:30:47.905Z,65.07
2022-10-13T07:33:19.935Z,65.64
2022-10-13T07:35:50.558Z,64.90
2022-10-13T07:38:23.776Z,64.80
2022-10-13T07:40:54.941Z,63.72
2022-10-13T07:43:25.078Z,64.45
2022-10-13T07:45:55.627Z,64.70
2022-10-13T07:48:25.949Z,65.81
2022-10-13T07:50:56.089Z,64.53
2022-10-13T07:53:28.567Z,65.05
2022-10-13T07:58:52.465Z,63.72
2022-10-13T08:01:24.939Z,63.99
2022-10-13T08:03:59.505Z,63.27
2022-10-13T08:06:29.991Z,63.27
2022-10-13T08:09:04.388Z,63.88
2022-10-13T08:11:34.612Z,63.52
2022-10-13T08:14:06.300Z,63.47
2022-10-13T08:16:38.308Z,63.02
2022-10-13T08:19:10.205Z,65.30
2022-10-13T08:22:01.880Z,65.03
2022-10-13T08:24:34.434Z,63.30
2022-10-13T08:27:04.989Z,62.55
2022-10-13T08:29:34.881Z,62.57
2022-10-13T08:32:07.212Z,62.49
2022-10-13T08:34:37.329Z,61.75
2022-10-13T08:37:08.489Z,60.67
2022-10-13T08:39:41.182Z,59.99
2022-10-13T08:42:18.592Z,60.55
2022-10-13T08:45:28.354Z,60.37
2022-10-13T08:47:48.708Z,60.23
2022-10-13T08:50:21.891Z,59.26
2022-10-13T08:52:55.476Z,59.53
2022-10-13T08:55:36.101Z,59.01
2022-10-13T08:58:15.824Z,59.44
2022-10-13T09:00:45.905Z,59.19
2022-10-13T09:03:26.005Z,58.50
2022-10-13T09:06:12.066Z,58.46
2022-10-13T09:08:46.812Z,57.85
2022-10-13T09:11:19.964Z,57.70
2022-10-13T09:13:50.580Z,58.31
2022-10-13T09:16:29.676Z,57.63
2022-10-13T09:19:25.611Z,57.92
2022-10-13T09:21:57.614Z,57.92
2022-10-13T09:24:29.627Z,57.94
2022-10-13T09:27:21.451Z,57.61
2022-10-13T09:29:58.699Z,57.51
2022-10-13T09:32:28.612Z,57.23
2022-10-13T09:35:23.052Z,57.65
2022-10-13T09:38:05.515Z,58.08
2022-10-13T09:40:36.188Z,57.56
2022-10-13T09:43:20.159Z,57.51
2022-10-13T09:45:51.006Z,57.45
2022-10-13T09:48:29.154Z,56.88
2022-10-13T09:51:03.208Z,56.87
2022-10-13T09:53:36.813Z,57.57
2022-10-13T09:56:12.913Z,57.64
2022-10-13T09:58:52.475Z,57.84
2022-10-13T10:01:29.471Z,58.29
2022-10-13T10:04:00.488Z,58.97
2022-10-13T10:06:31.015Z,59.55
2022-10-13T10:09:08.971Z,59.47
2022-10-13T10:14:55.527Z,58.11
2022-10-13T10:17:43.897Z,57.37
2022-10-13T10:20:43.783Z,57.31
2022-10-13T10:26:24.266Z,57.69
2022-10-13T10:29:26.328Z,56.99
2022-10-13T10:32:14.647Z,55.92
2022-10-13T10:34:53.236Z,55.88
2022-10-13T10:37:37.964Z,55.69
2022-10-13T10:40:20.394Z,56.47
2022-10-13T10:43:20.090Z,57.26
2022-10-13T10:45:51.397Z,56.74
2022-10-13T10:48:27.268Z,57.56
2022-10-13T10:50:58.148Z,57.60
2022-10-13T11:00:25.003Z,58.20
2022-10-13T11:10:26.505Z,56.17
2022-10-13T11:13:23.422Z,55.45
2022-10-13T11:15:53.861Z,54.72
2022-10-13T11:18:53.953Z,54.08
2022-10-13T11:21:24.481Z,54.18
2022-10-13T11:23:58.462Z,54.01
2022-10-13T11:26:46.696Z,53.17
2022-10-13T11:29:22.979Z,52.95
2022-10-13T11:32:11.285Z,52.33
2022-10-13T11:35:01.175Z,51.84
2022-10-13T11:37:55.801Z,52.35
2022-10-13T11:40:37.060Z,52.15
2022-10-13T11:43:26.847Z,52.83
2022-10-13T11:46:08.723Z,52.11
2022-10-13T11:49:03.098Z,52.06
2022-10-13T11:51:41.269Z,53.28
2022-10-13T11:54:22.247Z,52.69
2022-10-13T11:56:54.187Z,51.54
2022-10-13T11:59:31.685Z,51.38
2022-10-13T12:02:08.388Z,50.30
2022-10-13T12:04:41.542Z,50.82
2022-10-13T12:07:16.965Z,49.52
2022-10-13T12:09:53.050Z,50.16
2022-10-13T12:12:30.742Z,51.59
2022-10-13T12:15:33.157Z,50.58
2022-10-13T12:18:17.545Z,50.93
2022-10-13T12:20:59.399Z,50.41
2022-10-13T12:23:30.223Z,49.79
2022-10-13T12:26:02.153Z,49.67
2022-10-13T12:32:03.274Z,49.92
2022-10-13T12:34:36.721Z,49.94
2022-10-13T12:37:17.734Z,49.95
2022-10-13T12:39:55.510Z,50.22
2022-10-13T12:42:33.996Z,49.86
2022-10-13T12:47:57.497Z,50.50
2022-10-13T12:50:49.341Z,49.37
2022-10-13T12:53:31.313Z,50.25
2022-10-13T12:56:03.678Z,51.07
2022-10-13T12:58:36.313Z,50.46
2022-10-13T13:01:11.050Z,50.16
2022-10-13T13:03:46.846Z,50.96
2022-10-13T13:06:33.449Z,51.09
2022-10-13T13:09:39.907Z,50.41
2022-10-13T13:12:29.420Z,50.54
2022-10-13T13:15:00.684Z,50.44
2022-10-13T13:23:23.560Z,51.02
2022-10-13T13:26:04.391Z,51.24
2022-10-13T13:28:37.357Z,51.42
2022-10-13T13:31:08.181Z,50.85
2022-10-13T13:33:41.935Z,51.32
2022-10-13T13:36:30.434Z,51.56
2022-10-13T13:39:11.428Z,51.25
2022-10-13T13:41:55.895Z,51.46
2022-10-13T13:44:42.174Z,51.39
2022-10-13T13:47:20.632Z,50.20
2022-10-13T13:49:53.686Z,51.20
2022-10-13T13:52:29.609Z,51.77
2022-10-13T13:58:18.793Z,50.96
2022-10-13T14:00:56.975Z,50.97
2022-10-13T14:09:46.836Z,49.07
2022-10-13T14:12:17.989Z,48.44
2022-10-13T14:14:48.340Z,46.71
2022-10-13T14:17:30.383Z,46.43
2022-10-13T14:20:06.631Z,46.72
2022-10-13T14:22:40.602Z,45.78
2022-10-13T14:25:14.188Z,45.33
2022-10-13T14:27:46.320Z,45.48
2022-10-13T14:30:17.544Z,45.94
2022-10-13T14:32:48.253Z,46.10
2022-10-13T14:35:18.575Z,46.49
2022-10-13T14:37:50.041Z,46.39
2022-10-13T14:40:23.430Z,46.43
2022-10-13T14:42:54.483Z,46.84
2022-10-13T14:45:26.336Z,47.22
2022-10-13T14:47:58.803Z,47.54
2022-10-13T14:50:30.485Z,47.16
2022-10-13T14:53:01.198Z,47.67
2022-10-13T14:58:46.771Z,46.48
2022-10-13T15:01:18.261Z,45.98
2022-10-13T15:03:49.298Z,45.59
2022-10-13T15:06:21.303Z,45.94
2022-10-13T15:08:52.325Z,45.76
2022-10-13T15:11:24.007Z,45.79
2022-10-13T15:13:58.024Z,45.63
2022-10-13T15:16:38.104Z,45.61
2022-10-13T15:19:10.430Z,45.97
2022-10-13T15:21:41.374Z,45.26
2022-10-13T15:24:17.072Z,46.04
2022-10-13T15:26:47.494Z,46.20
2022-10-13T15:29:22.605Z,47.07
2022-10-13T15:31:52.879Z,46.35
2022-10-13T15:34:24.732Z,46.31
2022-10-13T15:36:54.786Z,46.33
2022-10-13T15:39:25.402Z,46.65
2022-10-13T15:42:03.122Z,46.30
2022-10-13T15:45:08.288Z,46.39
2022-10-13T15:47:32.785Z,45.77
2022-10-13T15:50:06.739Z,45.99
2022-10-13T15:59:28.358Z,47.85
2022-10-13T16:02:07.755Z,47.89
2022-10-13T16:05:19.077Z,48.36
2022-10-13T16:25:51.584Z,47.22
2022-10-13T16:28:29.205Z,47.12
2022-10-13T16:30:59.963Z,47.71
2022-10-13T16:36:52.454Z,47.60
2022-10-13T16:39:42.279Z,47.89
2022-10-13T16:42:17.364Z,47.80
2022-10-13T16:44:48.524Z,47.65
2022-10-13T16:48:21.325Z,47.50
2022-10-13T16:50:45.975Z,47.89
2022-10-13T16:53:19.516Z,47.29
2022-10-13T16:55:51.147Z,47.05
2022-10-13T16:58:24.122Z,46.63
2022-10-13T17:01:21.405Z,46.52
2022-10-13T17:03:52.603Z,46.62
2022-10-13T17:06:25.727Z,46.55
2022-10-13T17:09:00.314Z,46.90
2022-10-13T17:11:33.441Z,46.72
2022-10-13T17:14:11.053Z,47.29
2022-10-13T17:16:54.198Z,47.46
2022-10-13T17:20:15.668Z,47.49
2022-10-13T17:22:46.283Z,48.93
2022-10-13T17:25:24.344Z,48.04
2022-10-13T17:30:41.388Z,48.03
2022-10-13T17:33:12.902Z,47.67
2022-10-13T17:35:49.904Z,47.55
2022-10-13T17:38:26.018Z,47.82
2022-10-13T17:40:59.782Z,48.95
2022-10-13T17:43:31.281Z,47.88
2022-10-13T17:46:35.060Z,47.86
2022-10-13T17:49:06.010Z,48.92
2022-10-13T17:51:36.254Z,48.36
2022-10-13T17:54:11.446Z,48.70
2022-10-13T17:56:42.871Z,48.38
2022-10-13T17:59:13.008Z,49.66
2022-10-13T18:01:46.747Z,49.03
2022-10-13T18:04:20.210Z,49.24
2022-10-13T18:07:27.429Z,49.54
2022-10-13T18:11:07.523Z,49.29
2022-10-13T18:13:22.705Z,49.00
2022-10-13T18:15:55.006Z,49.31
2022-10-13T18:18:35.116Z,49.57
2022-10-13T18:24:44.909Z,49.90
2022-10-13T18:27:42.067Z,49.14
2022-10-13T18:30:23.747Z,50.09
2022-10-13T18:33:01.964Z,50.06
2022-10-13T18:36:17.911Z,50.67
2022-10-13T18:39:38.501Z,51.04
2022-10-13T18:41:45.226Z,50.86
2022-10-13T18:44:33.175Z,51.03
2022-10-13T18:47:37.982Z,51.05
2022-10-13T18:50:13.776Z,51.89
2022-10-13T18:52:45.334Z,51.84
2022-10-13T18:55:18.627Z,51.38
2022-10-13T18:57:48.601Z,51.04
2022-10-13T19:00:22.127Z,50.94
2022-10-13T19:02:53.429Z,51.06
2022-10-13T19:05:23.621Z,51.05
2022-10-13T19:07:53.634Z,51.70
2022-10-13T19:10:26.672Z,52.19
2022-10-13T19:12:58.909Z,52.12
2022-10-13T19:15:30.313Z,52.47
2022-10-13T19:19:02.495Z,53.34
2022-10-13T19:21:46.667Z,53.97
2022-10-13T19:24:16.565Z,54.37
2022-10-13T19:26:49.359Z,54.52
2022-10-13T19:29:19.187Z,54.87
2022-10-13T19:31:49.753Z,54.60
2022-10-13T19:34:20.146Z,54.10
2022-10-13T19:36:50.602Z,53.74
2022-10-13T19:39:22.885Z,53.05
2022-10-13T19:41:57.781Z,52.86
2022-10-13T19:44:29.277Z,52.55
2022-10-13T19:47:01.555Z,54.06
2022-10-13T19:49:31.638Z,54.21
2022-10-13T19:52:01.876Z,54.43
2022-10-13T19:54:34.905Z,54.74
2022-10-13T19:57:07.719Z,55.73
2022-10-13T19:59:37.562Z,54.96
2022-10-13T20:02:07.843Z,54.76
2022-10-13T20:04:37.940Z,54.69
2022-10-13T20:07:08.031Z,54.64
2022-10-13T20:09:37.804Z,54.76
2022-10-13T20:12:10.697Z,55.25
2022-10-13T20:14:40.817Z,56.28
2022-10-13T20:17:10.714Z,55.96
2022-10-13T20:19:41.103Z,56.21
2022-10-13T20:22:10.869Z,57.01
2022-10-13T20:24:40.699Z,58.07
2022-10-13T20:27:13.320Z,57.17
2022-10-13T20:29:43.096Z,57.24
2022-10-13T20:32:15.157Z,57.22
2022-10-13T20:34:44.954Z,58.48
2022-10-13T20:37:15.494Z,57.70
2022-10-13T20:39:45.693Z,58.00
2022-10-13T20:42:18.071Z,57.34
2022-10-13T20:44:48.213Z,57.89
2022-10-13T20:47:18.216Z,57.61
2022-10-13T20:49:48.361Z,57.66
2022-10-13T20:52:18.553Z,57.75
2022-10-13T20:54:48.346Z,57.94
2022-10-13T20:57:21.430Z,58.48
2022-10-13T20:59:51.873Z,58.31
2022-10-13T21:02:21.770Z,57.86
2022-10-13T21:04:52.010Z,58.58
2022-10-13T21:07:22.029Z,58.19
2022-10-13T21:09:53.912Z,57.01
2022-10-13T21:12:26.681Z,57.17
2022-10-13T21:14:56.898Z,56.42
2022-10-13T21:17:26.873Z,56.58
2022-10-13T21:19:58.345Z,56.54
2022-10-13T21:22:28.432Z,56.79
2022-10-13T21:24:58.550Z,57.23
2022-10-13T21:27:30.927Z,57.91
2022-10-13T21:30:01.097Z,58.28
2022-10-13T21:32:32.469Z,58.84
2022-10-13T21:35:02.526Z,59.67
2022-10-13T21:37:36.189Z,59.24
2022-10-13T21:40:07.006Z,60.03
2022-10-13T21:42:41.857Z,59.31
2022-10-13T21:45:13.140Z,59.72
2022-10-13T21:47:43.241Z,59.21
2022-10-13T21:50:13.460Z,59.56
2022-10-13T21:52:43.227Z,59.45
2022-10-13T21:55:14.219Z,59.39
2022-10-13T21:57:46.712Z,60.31
2022-10-13T22:00:17.364Z,59.79
2022-10-13T22:02:47.249Z,59.62
2022-10-13T22:05:17.682Z,60.17
2022-10-13T22:07:47.451Z,60.30
2022-10-13T22:10:17.263Z,60.22
2022-10-13T22:12:49.933Z,60.34
2022-10-13T22:15:19.940Z,60.60
2022-10-13T22:17:50.386Z,60.54
2022-10-13T22:20:20.597Z,61.11
2022-10-13T22:22:50.471Z,60.72
2022-10-13T22:25:20.966Z,61.05
2022-10-13T22:27:53.515Z,60.48
2022-10-13T22:30:23.947Z,61.94
2022-10-13T22:32:53.863Z,61.83
2022-10-13T22:35:24.129Z,61.68
2022-10-13T22:37:53.935Z,62.21
2022-10-13T22:40:24.022Z,62.97
2022-10-13T22:42:57.362Z,62.27
2022-10-13T22:45:27.636Z,62.20
2022-10-13T22:47:58.188Z,61.96
2022-10-13T22:50:28.299Z,61.59
2022-10-13T22:52:58.532Z,61.38
2022-10-13T22:55:29.023Z,60.72
2022-10-13T22:58:01.885Z,61.65
2022-10-13T23:00:32.330Z,60.74
2022-10-13T23:03:02.156Z,61.88
2022-10-13T23:05:32.160Z,61.88
2022-10-13T23:08:02.397Z,62.83
2022-10-13T23:10:32.243Z,62.18
2022-10-13T23:13:05.010Z,62.81
2022-10-13T23:15:35.697Z,63.33
2022-10-13T23:18:05.816Z,62.75
2022-10-13T23:20:36.021Z,62.25
2022-10-13T23:23:06.092Z,62.58
2022-10-13T23:25:36.855Z,62.17
2022-10-13T23:28:09.691Z,62.62
2022-10-13T23:30:39.922Z,62.89
2022-10-13T23:33:10.108Z,62.49
2022-10-13T23:35:39.897Z,62.55
2022-10-13T23:38:10.212Z,63.96
2022-10-13T23:40:40.696Z,63.46
2022-10-13T23:43:13.604Z,63.35
2022-10-13T23:45:44.667Z,63.36
2022-10-13T23:51:33.666Z,63.60
2022-10-13T23:54:03.419Z,64.37
2022-10-13T23:56:33.489Z,64.66
2022-10-13T23:59:05.840Z,63.38
